createdAt,value
2022-11-29T00:01:25.108Z,101620.53
2022-11-29T00:03:52.831Z,101621.34
2022-11-29T00:06:22.495Z,101626.78
2022-11-29T00:08:49.969Z,101630.25
2022-11-29T00:11:38.832Z,101630.25
2022-11-29T00:14:06.513Z,101635.69
2022-11-29T00:16:33.379Z,101639.97
2022-11-29T00:19:00.078Z,101636.47
2022-11-29T00:21:26.620Z,101635.69
2022-11-29T00:23:53.560Z,101642.66
2022-11-29T00:26:20.183Z,101629.47
2022-11-29T00:28:46.845Z,101641.09
2022-11-29T00:31:18.949Z,101642.66
2022-11-29T00:33:46.619Z,101643.44
2022-11-29T00:36:14.053Z,101641.44
2022-11-29T00:38:41.085Z,101652.28
2022-11-29T00:41:08.683Z,101652.72
2022-11-29T00:43:35.749Z,101647.31
2022-11-29T00:46:03.214Z,101653.19
2022-11-29T00:48:30.342Z,101643.91
2022-11-29T00:50:56.806Z,101641.56
2022-11-29T00:53:23.516Z,101640.41
2022-11-29T00:55:51.930Z,101640.75
2022-11-29T00:58:19.861Z,101635.25
2022-11-29T01:00:47.614Z,101643.81
2022-11-29T01:03:16.010Z,101639.50
2022-11-29T01:05:43.011Z,101640.66
2022-11-29T01:08:10.778Z,101633.31
2022-11-29T01:10:37.398Z,101643.81
2022-11-29T01:13:04.040Z,101654.66
2022-11-29T01:15:30.916Z,101652.72
2022-11-29T01:17:57.399Z,101649.69
2022-11-29T01:20:23.951Z,101653.19
2022-11-29T01:22:51.632Z,101652.03
2022-11-29T01:25:19.433Z,101660.59
2022-11-29T01:27:46.947Z,101664.09
2022-11-29T01:30:14.128Z,101662.19
2022-11-29T01:32:40.702Z,101667.97
2022-11-29T01:35:07.636Z,101662.97
2022-11-29T01:37:34.331Z,101663.75
2022-11-29T01:40:00.832Z,101669.53
2022-11-29T01:42:27.922Z,101672.22
2022-11-29T01:45:08.174Z,101676.53
2022-11-29T01:47:43.614Z,101674.16
2022-11-29T01:50:10.830Z,101672.94
2022-11-29T01:52:38.020Z,101674.88
2022-11-29T01:55:07.417Z,101675.19
2022-11-29T01:57:36.743Z,101679.06
2022-11-29T02:00:09.293Z,101681.31
2022-11-29T02:02:42.307Z,101690.25
2022-11-29T02:05:10.350Z,101690.25
2022-11-29T02:07:37.733Z,101690.25
2022-11-29T02:10:06.548Z,101692.94
2022-11-29T02:12:44.851Z,101690.69
2022-11-29T02:15:25.947Z,101683.34
2022-11-29T02:18:08.338Z,101688.75
2022-11-29T02:20:53.000Z,101684.47
2022-11-29T02:23:23.616Z,101687.97
2022-11-29T02:26:15.456Z,101686.75
2022-11-29T02:29:26.003Z,101691.38
2022-11-29T02:32:07.940Z,101692.50
2022-11-29T02:35:12.609Z,101697.59
2022-11-29T02:38:00.958Z,101695.66
2022-11-29T02:40:44.558Z,101694.09
2022-11-29T02:43:31.265Z,101700.19
2022-11-29T02:45:57.748Z,101692.06
2022-11-29T02:48:36.903Z,101693.66
2022-11-29T02:51:11.449Z,101704.13
2022-11-29T02:53:43.988Z,101703.34
2022-11-29T02:56:21.187Z,101703.69
2022-11-29T02:58:55.698Z,101712.94
2022-11-29T03:01:48.595Z,101723.00
2022-11-29T03:04:29.989Z,101724.59
2022-11-29T03:07:06.139Z,101728.78
2022-11-29T03:09:43.584Z,101721.78
2022-11-29T03:12:23.236Z,101725.28
2022-11-29T03:15:13.775Z,101714.44
2022-11-29T03:18:01.211Z,101727.53
2022-11-29T03:20:45.215Z,101720.09
2022-11-29T03:23:25.446Z,101729.81
2022-11-29T03:26:06.949Z,101733.66
2022-11-29T03:28:43.474Z,101736.38
2022-11-29T03:31:24.531Z,101729.69
2022-11-29T03:34:16.227Z,101735.09
2022-11-29T03:36:51.902Z,101732.31
2022-11-29T03:39:23.794Z,101742.00
2022-11-29T03:42:02.206Z,101752.06
2022-11-29T03:44:40.093Z,101752.41
2022-11-29T03:47:12.599Z,101749.19
2022-11-29T03:49:47.618Z,101755.44
2022-11-29T03:52:24.147Z,101753.84
2022-11-29T03:55:09.067Z,101756.88
2022-11-29T03:57:50.132Z,101761.53
2022-11-29T04:00:17.834Z,101764.22
2022-11-29T04:02:55.605Z,101761.06
2022-11-29T04:05:40.466Z,101769.31
2022-11-29T04:08:27.559Z,101768.53
2022-11-29T04:11:18.238Z,101770.78
2022-11-29T04:14:04.288Z,101778.13
2022-11-29T04:16:40.151Z,101774.28
2022-11-29T04:19:33.146Z,101773.94
2022-11-29T04:22:21.830Z,101780.84
2022-11-29T04:25:15.313Z,101779.25
2022-11-29T04:28:16.337Z,101786.59
2022-11-29T04:31:33.471Z,101782.28
2022-11-29T04:34:39.541Z,101785.38
2022-11-29T04:37:24.726Z,101785.25
2022-11-29T04:40:05.319Z,101783.69
2022-11-29T04:42:56.168Z,101791.44
2022-11-29T04:45:44.374Z,101790.66
2022-11-29T04:48:21.330Z,101793.81
2022-11-29T04:50:57.619Z,101792.34
2022-11-29T04:53:59.977Z,101796.97
2022-11-29T04:56:43.273Z,101796.66
2022-11-29T04:59:38.744Z,101797.44
2022-11-29T05:02:13.910Z,101803.63
2022-11-29T05:04:56.587Z,101805.56
2022-11-29T05:07:24.054Z,101814.47
2022-11-29T05:10:18.337Z,101809.38
2022-11-29T05:12:52.987Z,101812.09
2022-11-29T05:15:44.774Z,101821.81
2022-11-29T05:18:44.018Z,101833.13
2022-11-29T05:21:25.725Z,101833.91
2022-11-29T05:24:09.669Z,101835.47
2022-11-29T05:27:05.344Z,101835.38
2022-11-29T05:30:00.520Z,101840.78
2022-11-29T05:32:34.810Z,101845.44
2022-11-29T05:35:34.462Z,101844.28
2022-11-29T05:38:10.410Z,101852.75
2022-11-29T05:40:46.139Z,101839.56
2022-11-29T05:43:27.691Z,101848.13
2022-11-29T05:46:09.337Z,101843.81
2022-11-29T05:48:54.621Z,101854.66
2022-11-29T05:51:42.402Z,101857.38
2022-11-29T05:54:26.383Z,101861.22
2022-11-29T05:57:13.856Z,101865.06
2022-11-29T05:59:42.754Z,101870.47
2022-11-29T06:02:28.424Z,101873.19
2022-11-29T06:05:17.618Z,101879.41
2022-11-29T06:07:59.953Z,101882.13
2022-11-29T06:10:32.871Z,101879.41
2022-11-29T06:13:10.138Z,101877.50
2022-11-29T06:16:10.693Z,101879.41
2022-11-29T06:18:46.325Z,101871.28
2022-11-29T06:21:37.343Z,101882.44
2022-11-29T06:24:03.758Z,101885.94
2022-11-29T06:26:48.447Z,101888.97
2022-11-29T06:29:25.492Z,101890.91
2022-11-29T06:32:16.253Z,101889.34
2022-11-29T06:34:53.429Z,101891.69
2022-11-29T06:37:29.628Z,101905.59
2022-11-29T06:39:56.559Z,101904.78
2022-11-29T06:42:23.133Z,101911.34
2022-11-29T06:44:49.863Z,101905.13
2022-11-29T06:47:28.864Z,101915.97
2022-11-29T06:50:08.552Z,101914.94
2022-11-29T06:52:43.688Z,101926.31
2022-11-29T06:55:18.372Z,101928.47
2022-11-29T06:58:03.294Z,101928.09
2022-11-29T07:00:48.759Z,101927.13
2022-11-29T07:03:35.652Z,101935.34
2022-11-29T07:06:14.500Z,101937.06
2022-11-29T07:08:43.443Z,101946.44
2022-11-29T07:11:13.501Z,101944.06
2022-11-29T07:13:40.272Z,101943.72
2022-11-29T07:16:24.944Z,101953.44
2022-11-29T07:19:03.749Z,101957.28
2022-11-29T07:21:43.794Z,101964.63
2022-11-29T07:24:16.280Z,101965.75
2022-11-29T07:26:59.598Z,101964.16
2022-11-29T07:29:39.583Z,101972.28
2022-11-29T07:32:14.754Z,101978.69
2022-11-29T07:34:51.139Z,101981.31
2022-11-29T07:37:39.983Z,101984.00
2022-11-29T07:40:15.245Z,101989.06
2022-11-29T07:42:56.983Z,101996.09
2022-11-29T07:45:28.222Z,101998.81
2022-11-29T07:47:55.028Z,101994.50
2022-11-29T07:50:22.040Z,101995.19
2022-11-29T07:52:49.156Z,102007.94
2022-11-29T07:55:19.210Z,102005.22
2022-11-29T07:57:46.696Z,102006.78
2022-11-29T08:00:13.973Z,102011.09
2022-11-29T08:02:41.604Z,102009.50
2022-11-29T08:05:08.769Z,102015.06
2022-11-29T08:07:37.874Z,102013.28
2022-11-29T08:10:07.616Z,102020.47
2022-11-29T08:12:34.195Z,102025.44
2022-11-29T08:15:01.176Z,102026.44
2022-11-29T08:17:28.068Z,102025.19
2022-11-29T08:19:54.497Z,102030.25
2022-11-29T08:22:21.003Z,102027.69
2022-11-29T08:24:47.908Z,102028.13
2022-11-29T08:27:14.711Z,102030.06
2022-11-29T08:29:41.276Z,102023.03
2022-11-29T08:32:08.974Z,102034.81
2022-11-29T08:34:35.525Z,102035.28
2022-11-29T08:37:02.048Z,102031.41
2022-11-29T11:08:32.671Z,102108.38
2022-11-29T11:11:02.157Z,102111.53
2022-11-29T11:13:31.793Z,102114.34
2022-11-29T11:16:09.384Z,102108.25
2022-11-29T11:18:36.871Z,102110.28
2022-11-29T11:21:04.692Z,102103.53
2022-11-29T11:23:37.417Z,102097.09
2022-11-29T11:26:11.126Z,102105.78
2022-11-29T11:28:46.831Z,102103.44
2022-11-29T11:31:14.231Z,102116.88
2022-11-29T11:33:44.125Z,102114.16
2022-11-29T11:36:23.165Z,102113.38
2022-11-29T11:38:54.762Z,102121.50
2022-11-29T11:41:49.105Z,102117.66
2022-11-29T11:44:53.615Z,102116.63
2022-11-29T11:47:24.411Z,102117.56
2022-11-29T11:49:54.792Z,102118.78
2022-11-29T11:52:24.527Z,102124.44
2022-11-29T11:54:55.601Z,102117.00
2022-11-29T11:57:23.837Z,102125.13
2022-11-29T12:04:26.273Z,102130.88
2022-11-29T12:06:58.506Z,102133.72
2022-11-29T12:09:40.716Z,102143.13
2022-11-29T12:12:43.450Z,102143.13
2022-11-29T12:15:25.492Z,102139.72
2022-11-29T12:17:55.560Z,102135.88
2022-11-29T12:20:31.646Z,102140.97
2022-11-29T12:23:12.844Z,102146.06
2022-11-29T12:25:55.746Z,102147.28
2022-11-29T12:28:26.975Z,102154.66
2022-11-29T12:31:14.053Z,102154.44
2022-11-29T12:33:57.939Z,102154.88
2022-11-29T12:36:47.012Z,102154.53
2022-11-29T12:39:41.836Z,102162.81
2022-11-29T12:42:30.048Z,102164.84
2022-11-29T12:45:24.029Z,102162.91
2022-11-29T12:47:59.054Z,102176.03
2022-11-29T12:50:34.118Z,102176.38
2022-11-29T12:53:26.792Z,102179.44
2022-11-29T12:56:10.930Z,102179.19
2022-11-29T12:58:53.875Z,102183.84
2022-11-29T13:01:39.083Z,102180.81
2022-11-29T13:04:06.578Z,102173.91
2022-11-29T13:13:46.072Z,102175.81
2022-11-29T13:16:31.665Z,102188.72
2022-11-29T13:19:09.307Z,102190.31
2022-11-29T13:21:57.141Z,102193.03
2022-11-29T13:24:32.607Z,102196.16
2022-11-29T13:27:04.301Z,102186.13
2022-11-29T13:29:31.397Z,102185.31
2022-11-29T13:31:58.889Z,102181.03
2022-11-29T13:34:36.878Z,102190.41
2022-11-29T13:37:28.088Z,102190.88
2022-11-29T13:40:11.790Z,102194.72
2022-11-29T13:42:45.381Z,102200.94
2022-11-29T13:45:44.491Z,102202.50
2022-11-29T13:48:28.419Z,102202.50
2022-11-29T13:50:57.067Z,102201.41
2022-11-29T13:53:25.890Z,102195.84
2022-11-29T13:56:04.047Z,102204.78
2022-11-29T13:58:37.544Z,102201.59
2022-11-29T14:01:10.962Z,102207.03
2022-11-29T14:03:40.649Z,102204.69
2022-11-29T14:06:14.250Z,102195.75
2022-11-29T14:09:21.161Z,102201.97
2022-11-29T14:11:59.396Z,102199.13
2022-11-29T14:14:32.133Z,102188.59
2022-11-29T14:17:02.081Z,102194.84
2022-11-29T14:19:33.942Z,102192.13
2022-11-29T14:22:01.845Z,102192.13
2022-11-29T14:24:32.477Z,102198.66
2022-11-29T14:27:06.141Z,102199.03
2022-11-29T14:42:07.568Z,102208.94
2022-11-29T14:44:43.296Z,102215.03
2022-11-29T14:47:23.933Z,102216.38
2022-11-29T14:49:53.080Z,102221.00
2022-11-29T14:52:28.532Z,102218.50
2022-11-29T14:55:06.460Z,102212.94
2022-11-29T14:57:56.541Z,102207.88
2022-11-29T15:00:40.586Z,102213.97
2022-11-29T15:03:23.083Z,102206.38
2022-11-29T15:06:04.270Z,102205.78
2022-11-29T15:09:03.400Z,102212.56
2022-11-29T15:11:45.639Z,102204.72
2022-11-29T15:14:23.849Z,102206.56
2022-11-29T15:17:04.671Z,102216.34
2022-11-29T15:19:53.047Z,102225.34
2022-11-29T15:22:23.959Z,102223.63
2022-11-29T15:24:53.163Z,102221.13
2022-11-29T15:27:20.509Z,102220.53
2022-11-29T15:29:48.497Z,102221.19
2022-11-29T15:32:32.650Z,102225.03
2022-11-29T15:34:59.726Z,102228.38
2022-11-29T15:37:42.877Z,102222.50
2022-11-29T15:40:29.250Z,102222.66
2022-11-29T15:43:14.925Z,102228.75
2022-11-29T15:45:47.795Z,102234.38
2022-11-29T15:48:18.602Z,102235.50
2022-11-29T15:50:57.234Z,102238.19
2022-11-29T15:53:31.282Z,102235.63
2022-11-29T15:56:02.992Z,102243.41
2022-11-29T15:58:37.375Z,102239.25
2022-11-29T16:01:04.977Z,102252.47
2022-11-29T16:03:35.645Z,102247.25
2022-11-29T16:06:09.785Z,102243.06
2022-11-29T16:08:42.317Z,102250.41
2022-11-29T16:11:17.163Z,102252.31
2022-11-29T16:14:02.632Z,102249.16
2022-11-29T16:16:34.953Z,102255.38
2022-11-29T16:19:28.750Z,102254.09
2022-11-29T16:22:13.749Z,102258.88
2022-11-29T16:24:52.505Z,102260.13
2022-11-29T16:27:21.085Z,102247.03
2022-11-29T16:29:48.557Z,102254.84
2022-11-29T16:32:33.779Z,102255.16
2022-11-29T16:35:12.186Z,102258.34
2022-11-29T16:37:42.131Z,102259.59
2022-11-29T16:40:25.574Z,102258.13
2022-11-29T16:43:06.562Z,102261.31
2022-11-29T16:45:40.180Z,102265.16
2022-11-29T16:48:22.109Z,102265.81
2022-11-29T16:51:13.482Z,102265.81
2022-11-29T16:53:42.603Z,102258.13
2022-11-29T16:56:14.745Z,102262.00
2022-11-29T16:59:20.798Z,102265.81
2022-11-29T17:01:32.603Z,102265.03
2022-11-29T17:04:00.637Z,102270.44
2022-11-29T17:06:29.029Z,102268.03
2022-11-29T17:08:57.403Z,102274.47
2022-11-29T17:11:24.417Z,102269.38
2022-11-29T17:13:51.554Z,102274.13
2022-11-29T17:16:21.288Z,102273.34
2022-11-29T17:18:48.264Z,102274.47
2022-11-29T17:21:21.659Z,102276.38
2022-11-29T17:23:48.786Z,102289.16
2022-11-29T17:26:16.834Z,102282.13
2022-11-29T17:28:44.820Z,102289.94
2022-11-29T17:31:13.201Z,102286.91
2022-11-29T17:33:40.146Z,102290.41
2022-11-29T17:36:08.644Z,102280.22
2022-11-29T17:38:35.373Z,102291.53
2022-11-29T17:41:08.270Z,102281.16
2022-11-29T17:43:36.424Z,102294.50
2022-11-29T17:46:14.541Z,102295.63
2022-11-29T17:48:41.629Z,102304.22
2022-11-29T17:51:22.781Z,102300.72
2022-11-29T17:53:56.166Z,102302.19
2022-11-29T17:56:27.049Z,102301.03
2022-11-29T17:58:55.596Z,102296.44
2022-11-29T18:01:25.399Z,102302.66
2022-11-29T18:03:55.379Z,102296.91
2022-11-29T18:06:27.407Z,102310.09
2022-11-29T18:08:58.681Z,102310.09
2022-11-29T18:11:30.684Z,102307.41
2022-11-29T18:13:59.715Z,102313.97
2022-11-29T18:16:29.871Z,102313.59
2022-11-29T18:19:03.545Z,102324.44
2022-11-29T18:21:36.237Z,102321.31
2022-11-29T18:24:06.713Z,102321.75
2022-11-29T18:26:35.331Z,102327.16
2022-11-29T18:29:04.481Z,102326.06
2022-11-29T18:31:39.201Z,102328.78
2022-11-29T18:34:10.157Z,102328.78
2022-11-29T18:39:26.478Z,102331.47
2022-11-29T18:41:53.619Z,102325.28
2022-11-29T18:44:22.315Z,102335.75
2022-11-29T18:46:50.445Z,102337.22
2022-11-29T18:49:18.341Z,102332.59
2022-11-29T18:51:46.514Z,102337.22
2022-11-29T18:54:15.016Z,102334.84
2022-11-29T18:56:44.222Z,102338.69
2022-11-29T18:59:14.403Z,102335.19
2022-11-29T19:01:43.241Z,102340.13
2022-11-29T19:04:13.814Z,102342.06
2022-11-29T19:06:44.078Z,102347.78
2022-11-29T19:09:15.111Z,102344.28
2022-11-29T19:11:50.087Z,102348.47
2022-11-29T19:14:19.343Z,102345.75
2022-11-29T19:16:56.181Z,102345.41
2022-11-29T19:19:29.783Z,102342.69
2022-11-29T19:22:09.427Z,102348.47
2022-11-29T19:24:36.407Z,102344.16
2022-11-29T19:27:04.839Z,102345.41
2022-11-29T19:29:36.666Z,102347.78
2022-11-29T19:32:08.541Z,102351.63
2022-11-29T19:34:35.567Z,102351.63
2022-11-29T19:37:04.998Z,102356.25
2022-11-29T19:39:34.424Z,102353.88
2022-11-29T19:42:01.188Z,102348.47
2022-11-29T19:44:29.999Z,102353.88
2022-11-29T19:49:46.127Z,102357.38
2022-11-29T19:52:24.219Z,102357.84
2022-11-29T19:54:53.302Z,102358.97
2022-11-29T19:57:22.124Z,102360.22
2022-11-29T19:59:50.162Z,102361.50
2022-11-29T20:02:26.023Z,102368.81
2022-11-29T20:07:41.271Z,102369.94
2022-11-29T20:10:10.928Z,102372.66
2022-11-29T20:12:44.139Z,102380.00
2022-11-29T20:15:13.604Z,102381.09
2022-11-29T20:17:41.227Z,102374.13
2022-11-29T20:20:08.634Z,102376.03
2022-11-29T20:22:35.659Z,102372.97
2022-11-29T20:25:02.607Z,102374.59
2022-11-29T20:27:30.883Z,102374.22
2022-11-29T20:29:57.453Z,102382.72
2022-11-29T20:32:28.151Z,102379.66
2022-11-29T20:35:06.880Z,102381.59
2022-11-29T20:38:23.883Z,102376.94
2022-11-29T20:41:03.154Z,102386.22
2022-11-29T20:43:57.656Z,102383.03
2022-11-29T20:46:31.618Z,102384.97
2022-11-29T20:49:08.847Z,102383.50
2022-11-29T20:51:44.552Z,102388.94
2022-11-29T21:22:24.875Z,102407.25
2022-11-29T21:28:26.435Z,102412.34
2022-11-29T21:45:41.927Z,102418.72
2022-11-29T21:48:28.697Z,102431.13
2022-11-29T21:50:56.608Z,102424.91
2022-11-29T21:53:23.704Z,102427.63
2022-11-29T21:55:58.297Z,102428.75
2022-11-29T21:58:26.667Z,102427.63
2022-11-29T22:00:53.500Z,102434.66
2022-11-29T22:03:25.096Z,102427.63
2022-11-29T22:05:54.976Z,102430.34
2022-11-29T22:08:22.968Z,102430.34
2022-11-29T22:11:00.594Z,102435.75
2022-11-29T22:13:30.881Z,102437.38
2022-11-29T22:16:12.388Z,102436.22
2022-11-29T22:18:42.030Z,102440.53
2022-11-29T22:21:10.117Z,102440.53
2022-11-29T22:23:40.056Z,102438.63
2022-11-29T22:26:13.066Z,102435.91
2022-11-29T22:28:43.005Z,102437.81
2022-11-29T22:31:18.733Z,102431.13
2022-11-29T22:33:45.988Z,102440.09
2022-11-29T22:36:15.153Z,102447.88
2022-11-29T22:38:42.042Z,102446.75
2022-11-29T22:41:14.180Z,102446.41
2022-11-29T22:43:46.390Z,102444.97
2022-11-29T22:46:17.605Z,102447.69
2022-11-29T22:48:47.285Z,102451.22
2022-11-29T22:51:20.368Z,102458.53
2022-11-29T22:53:50.986Z,102451.06
2022-11-29T22:56:23.470Z,102451.38
2022-11-29T22:58:56.666Z,102448.66
2022-11-29T23:01:29.330Z,102460.31
2022-11-29T23:04:03.380Z,102459.50
2022-11-29T23:06:34.716Z,102461.09
2022-11-29T23:09:21.848Z,102466.06
2022-11-29T23:11:53.235Z,102463.34
2022-11-29T23:14:24.912Z,102462.88
2022-11-29T23:16:54.824Z,102464.78
2022-11-29T23:19:22.902Z,102459.38
2022-11-29T23:21:56.113Z,102474.03
2022-11-29T23:24:23.357Z,102460.00
2022-11-29T23:26:51.220Z,102469.28
2022-11-29T23:29:22.455Z,102462.59
2022-11-29T23:31:55.536Z,102470.72
2022-11-29T23:34:28.848Z,102467.22
2022-11-29T23:36:58.851Z,102464.84
2022-11-29T23:39:27.218Z,102464.66
2022-11-29T23:41:56.087Z,102464.66
2022-11-29T23:44:27.165Z,102468.50
2022-11-29T23:46:57.821Z,102463.09
2022-11-29T23:49:33.731Z,102460.69
2022-11-29T23:52:03.094Z,102472.69
2022-11-29T23:54:33.230Z,102466.44
2022-11-29T23:57:05.508Z,102464.84
2022-11-29T23:59:53.126Z,102466.78
